createdAt,value
2018-03-22T00:01:00.517Z,9.00
2018-03-22T00:03:28.069Z,8.30
2018-03-22T00:05:56.377Z,8.63
2018-03-22T00:08:23.929Z,8.27
2018-03-22T00:10:51.464Z,7.00
2018-03-22T00:13:19.020Z,7.07
2018-03-22T00:15:47.316Z,8.50
2018-03-22T00:18:15.636Z,7.07
2018-03-22T00:20:43.172Z,6.30
2018-03-22T00:23:10.724Z,7.10
2018-03-22T00:25:38.261Z,7.30
2018-03-22T00:28:05.820Z,7.67
2018-03-22T00:30:33.354Z,7.70
2018-03-22T00:33:01.673Z,7.80
2018-03-22T00:35:29.213Z,7.37
2018-03-22T00:37:56.798Z,7.23
2018-03-22T00:40:24.336Z,7.83
2018-03-22T00:42:51.888Z,7.97
2018-03-22T00:45:20.183Z,8.80
2018-03-22T00:47:48.500Z,8.00
2018-03-22T00:50:16.056Z,8.43
2018-03-22T00:52:43.592Z,8.93
2018-03-22T00:55:11.149Z,9.90
2018-03-22T00:57:38.681Z,8.70
2018-03-22T01:00:06.232Z,9.17
2018-03-22T01:02:33.783Z,9.33
2018-03-22T01:05:02.104Z,9.90
2018-03-22T01:07:29.645Z,10.13
2018-03-22T01:09:57.196Z,10.70
2018-03-22T01:12:24.733Z,11.83
2018-03-22T01:14:53.052Z,10.03
2018-03-22T01:17:20.584Z,10.20
2018-03-22T01:19:48.136Z,10.60
2018-03-22T01:22:15.670Z,11.80
2018-03-22T01:24:43.224Z,12.00
2018-03-22T01:27:11.524Z,12.43
2018-03-22T01:29:39.080Z,11.77
2018-03-22T01:32:06.615Z,12.20
2018-03-22T01:34:34.168Z,13.30
2018-03-22T01:37:01.716Z,12.70
2018-03-22T01:39:30.040Z,13.53
2018-03-22T01:41:57.574Z,13.80
2018-03-22T01:44:25.127Z,13.83
2018-03-22T01:46:52.660Z,13.77
2018-03-22T01:49:20.216Z,14.20
2018-03-22T01:51:47.752Z,13.60
2018-03-22T01:54:15.312Z,13.93
2018-03-22T01:56:43.611Z,15.07
2018-03-22T01:59:11.954Z,14.67
2018-03-22T02:01:39.500Z,16.17
2018-03-22T02:04:07.817Z,13.70
2018-03-22T02:06:36.116Z,15.97
2018-03-22T02:09:04.419Z,15.77
2018-03-22T02:11:32.838Z,13.47
2018-03-22T02:14:00.371Z,15.30
2018-03-22T02:16:27.920Z,14.53
2018-03-22T02:18:55.451Z,16.27
2018-03-22T02:21:23.009Z,15.13
2018-03-22T02:23:50.544Z,16.87
2018-03-22T02:26:18.115Z,16.67
2018-03-22T02:28:46.416Z,16.53
2018-03-22T02:31:14.735Z,17.60
2018-03-22T02:33:42.268Z,17.87
2018-03-22T02:36:09.822Z,16.10
2018-03-22T02:38:37.363Z,17.13
2018-03-22T02:41:04.918Z,17.03
2018-03-22T02:43:32.450Z,17.63
2018-03-22T02:46:00.004Z,17.50
2018-03-22T02:48:27.535Z,16.90
2018-03-22T02:50:55.098Z,16.47
2018-03-22T02:53:23.403Z,17.47
2018-03-22T02:55:51.734Z,18.00
2018-03-22T02:58:19.277Z,17.13
2018-03-22T03:00:47.612Z,17.40
2018-03-22T03:03:15.159Z,16.37
2018-03-22T03:05:43.498Z,16.60
2018-03-22T03:08:11.045Z,17.27
2018-03-22T03:10:39.373Z,16.37
2018-03-22T03:13:06.913Z,16.83
2018-03-22T03:15:34.473Z,17.37
2018-03-22T03:18:02.021Z,16.70
2018-03-22T03:20:29.598Z,17.50
2018-03-22T03:22:57.910Z,17.50
2018-03-22T03:25:25.469Z,16.20
2018-03-22T03:27:53.796Z,17.00
2018-03-22T03:30:21.362Z,17.67
2018-03-22T03:32:49.698Z,17.00
2018-03-22T03:35:17.240Z,17.83
2018-03-22T03:37:45.570Z,18.87
2018-03-22T03:40:13.116Z,18.10
2018-03-22T03:42:40.691Z,18.47
2018-03-22T03:45:08.246Z,18.10
2018-03-22T03:47:36.580Z,18.97
2018-03-22T03:50:04.125Z,18.20
2018-03-22T03:52:31.680Z,19.20
2018-03-22T03:54:59.992Z,19.30
2018-03-22T03:57:27.555Z,18.17
2018-03-22T03:59:55.097Z,16.93
2018-03-22T04:02:22.657Z,18.00
2018-03-22T04:04:50.200Z,17.40
2018-03-22T04:07:17.769Z,17.93
2018-03-22T04:09:45.313Z,19.40
2018-03-22T04:12:12.881Z,18.53
2018-03-22T04:14:41.219Z,19.10
2018-03-22T04:17:09.002Z,19.37
2018-03-22T04:19:36.659Z,20.50
2018-03-22T04:22:04.990Z,20.63
2018-03-22T04:24:32.541Z,19.97
2018-03-22T04:27:00.881Z,19.57
2018-03-22T04:29:28.430Z,20.33
2018-03-22T04:31:56.761Z,20.60
2018-03-22T04:34:24.301Z,21.33
2018-03-22T04:36:51.861Z,20.07
2018-03-22T04:39:19.410Z,20.93
2018-03-22T04:41:46.977Z,20.77
2018-03-22T04:44:14.526Z,21.03
2018-03-22T04:46:42.073Z,21.87
2018-03-22T04:49:09.641Z,22.50
2018-03-22T04:51:37.185Z,22.17
2018-03-22T04:54:04.756Z,20.90
2018-03-22T04:56:32.297Z,22.47
2018-03-22T04:59:00.620Z,22.80
2018-03-22T05:01:28.165Z,22.90
2018-03-22T05:03:55.724Z,21.50
2018-03-22T05:06:23.270Z,22.90
2018-03-22T05:08:50.840Z,23.37
2018-03-22T05:11:19.153Z,24.77
2018-03-22T05:13:47.481Z,23.13
2018-03-22T05:16:15.028Z,23.07
2018-03-22T05:18:42.620Z,22.80
2018-03-22T05:21:10.158Z,26.63
2018-03-22T05:23:40.564Z,25.00
2018-03-22T05:26:08.105Z,21.73
2018-03-22T05:28:35.665Z,23.80
2018-03-22T05:31:03.213Z,23.93
2018-03-22T05:33:30.773Z,25.57
2018-03-22T05:35:58.317Z,25.93
2018-03-22T05:38:25.879Z,26.43
2018-03-22T05:40:53.431Z,24.60
2018-03-22T05:43:20.992Z,26.37
2018-03-22T05:45:49.305Z,27.23
2018-03-22T05:48:16.897Z,26.67
2018-03-22T05:50:45.192Z,26.83
2018-03-22T05:53:12.765Z,28.43
2018-03-22T05:55:41.082Z,27.30
2018-03-22T05:58:08.641Z,29.37
2018-03-22T06:00:36.181Z,29.03
2018-03-22T06:03:03.728Z,29.10
2018-03-22T06:05:32.060Z,28.30
2018-03-22T06:07:59.833Z,28.83
2018-03-22T06:10:27.397Z,30.83
2018-03-22T06:12:55.705Z,32.80
2018-03-22T06:15:24.038Z,30.43
2018-03-22T06:17:51.581Z,31.00
2018-03-22T06:20:19.909Z,33.57
2018-03-22T06:22:47.457Z,34.70
2018-03-22T06:25:15.020Z,34.57
2018-03-22T06:27:42.569Z,35.07
2018-03-22T06:30:10.138Z,35.97
2018-03-22T06:32:37.682Z,38.00
2018-03-22T06:35:05.245Z,35.47
2018-03-22T06:37:32.804Z,35.90
2018-03-22T06:40:00.369Z,36.33
2018-03-22T06:42:27.927Z,34.53
2018-03-22T06:44:55.493Z,34.03
2018-03-22T06:47:23.042Z,38.00
2018-03-22T06:49:50.601Z,35.30
2018-03-22T06:52:18.918Z,34.67
2018-03-22T06:54:46.476Z,33.67
2018-03-22T06:57:14.784Z,36.87
2018-03-22T06:59:43.109Z,33.97
2018-03-22T07:02:10.665Z,35.37
2018-03-22T07:04:39.001Z,35.83
2018-03-22T07:07:06.545Z,33.90
2018-03-22T07:09:34.879Z,36.43
2018-03-22T07:12:02.430Z,37.37
2018-03-22T07:14:29.997Z,36.43
2018-03-22T07:16:58.308Z,42.10
2018-03-22T07:19:25.855Z,39.90
2018-03-22T07:21:53.422Z,42.00
2018-03-22T07:24:20.978Z,41.70
2018-03-22T07:26:49.317Z,39.43
2018-03-22T07:29:16.860Z,39.90
2018-03-22T07:31:44.425Z,39.20
2018-03-22T07:34:11.973Z,41.07
2018-03-22T07:36:39.541Z,40.33
2018-03-22T07:39:07.253Z,39.53
2018-03-22T07:41:34.825Z,38.23
2018-03-22T07:44:08.012Z,40.77
2018-03-22T07:46:36.358Z,40.23
2018-03-22T07:49:03.909Z,38.60
2018-03-22T07:51:31.489Z,38.90
2018-03-22T07:53:59.033Z,39.10
2018-03-22T07:56:26.601Z,39.00
2018-03-22T07:58:54.218Z,37.43
2018-03-22T08:01:21.757Z,37.70
2018-03-22T08:03:49.309Z,36.30
2018-03-22T08:06:16.873Z,36.93
2018-03-22T08:08:45.189Z,36.37
2018-03-22T08:11:12.755Z,35.20
2018-03-22T08:13:41.078Z,36.50
2018-03-22T08:16:08.644Z,36.20
2018-03-22T08:18:36.956Z,34.17
2018-03-22T08:21:05.293Z,32.00
2018-03-22T08:23:32.846Z,32.57
2018-03-22T08:26:03.881Z,32.60
2018-03-22T08:28:37.398Z,33.10
2018-03-22T08:31:10.543Z,32.60
2018-03-22T08:33:38.853Z,29.63
2018-03-22T08:36:07.182Z,33.70
2018-03-22T08:38:34.729Z,33.57
2018-03-22T08:44:15.298Z,31.53
2018-03-22T08:46:42.921Z,28.53
2018-03-22T08:49:12.033Z,31.63
2018-03-22T08:51:39.631Z,28.17
2018-03-22T08:54:09.126Z,29.40
2018-03-22T08:56:37.789Z,29.50
2018-03-22T09:02:04.138Z,26.93
2018-03-22T09:04:31.710Z,27.43
2018-03-22T09:06:59.296Z,24.13
2018-03-22T09:09:26.868Z,26.53
2018-03-22T09:11:54.460Z,26.03
2018-03-22T09:14:22.586Z,26.10
2018-03-22T09:16:50.155Z,25.00
2018-03-22T09:19:18.557Z,25.00
2018-03-22T09:21:46.166Z,24.60
2018-03-22T09:24:13.736Z,25.30
2018-03-22T09:26:47.795Z,24.33
2018-03-22T09:29:15.374Z,24.53
2018-03-22T09:31:42.944Z,23.07
2018-03-22T09:34:16.668Z,22.17
2018-03-22T09:36:44.239Z,23.53
2018-03-22T09:39:11.821Z,24.73
2018-03-22T09:44:20.877Z,23.23
2018-03-22T09:46:48.468Z,21.23
2018-03-22T09:49:16.029Z,24.50
2018-03-22T09:51:43.590Z,22.73
2018-03-22T09:54:12.471Z,22.97
2018-03-22T09:56:40.031Z,22.80
2018-03-22T09:59:07.611Z,22.73
2018-03-22T10:01:36.705Z,24.47
2018-03-22T10:04:04.282Z,22.30
2018-03-22T10:06:31.877Z,23.77
2018-03-22T10:08:59.463Z,22.97
2018-03-22T10:11:27.922Z,22.13
2018-03-22T10:13:56.262Z,21.90
2018-03-22T10:16:24.913Z,21.20
2018-03-22T10:18:52.446Z,20.40
2018-03-22T10:21:20.757Z,20.17
2018-03-22T10:23:48.328Z,20.53
2018-03-22T10:26:23.634Z,18.93
2018-03-22T10:28:51.222Z,18.37
2018-03-22T10:31:18.818Z,19.40
2018-03-22T10:33:47.580Z,15.97
2018-03-22T10:36:15.187Z,17.27
2018-03-22T10:38:42.779Z,16.60
2018-03-22T10:41:10.354Z,18.73
2018-03-22T10:43:37.926Z,17.43
2018-03-22T10:46:05.478Z,16.90
2018-03-22T10:48:33.054Z,17.43
2018-03-22T10:51:01.384Z,16.67
2018-03-22T10:53:28.962Z,17.23
2018-03-22T10:55:56.531Z,18.00
2018-03-22T10:58:24.138Z,17.40
2018-03-22T11:00:58.024Z,15.30
2018-03-22T11:03:27.506Z,17.53
2018-03-22T11:05:55.102Z,15.70
2018-03-22T11:08:22.657Z,16.07
2018-03-22T11:10:50.237Z,16.10
2018-03-22T11:13:17.805Z,17.53
2018-03-22T11:15:45.402Z,17.30
2018-03-22T11:18:12.963Z,15.87
2018-03-22T11:20:40.529Z,17.70
2018-03-22T11:23:08.090Z,16.63
2018-03-22T11:25:35.678Z,16.10
2018-03-22T11:28:03.255Z,16.90
2018-03-22T11:30:30.818Z,17.50
2018-03-22T11:32:58.400Z,17.30
2018-03-22T11:35:25.970Z,16.97
2018-03-22T11:37:54.289Z,15.83
2018-03-22T11:40:21.871Z,16.63
2018-03-22T11:42:49.427Z,16.83
2018-03-22T11:45:17.005Z,17.77
2018-03-22T11:47:44.565Z,17.93
2018-03-22T11:50:12.130Z,16.50
2018-03-22T11:52:39.686Z,16.37
2018-03-22T11:55:07.274Z,18.00
2018-03-22T11:57:34.836Z,18.60
2018-03-22T12:00:18.952Z,18.13
2018-03-22T12:02:46.507Z,17.60
2018-03-22T12:05:14.850Z,19.47
2018-03-22T12:07:44.223Z,21.23
2018-03-22T12:10:11.821Z,18.83
2018-03-22T12:12:39.384Z,19.60
2018-03-22T12:15:06.975Z,18.90
2018-03-22T12:17:34.523Z,19.93
2018-03-22T12:20:03.209Z,19.70
2018-03-22T12:22:30.786Z,19.30
2018-03-22T12:24:58.343Z,20.30
2018-03-22T12:27:25.915Z,18.63
2018-03-22T12:29:53.466Z,18.83
2018-03-22T12:32:21.822Z,21.40
2018-03-22T12:34:49.375Z,22.00
2018-03-22T12:37:16.966Z,21.13
2018-03-22T12:39:44.524Z,21.60
2018-03-22T12:42:12.116Z,20.43
2018-03-22T12:44:39.670Z,20.07
2018-03-22T12:47:07.238Z,21.30
2018-03-22T12:49:34.789Z,19.60
2018-03-22T12:52:02.366Z,21.03
2018-03-22T12:54:33.018Z,21.83
2018-03-22T12:57:00.582Z,21.03
2018-03-22T12:59:28.147Z,21.63
2018-03-22T13:01:55.726Z,21.97
2018-03-22T13:04:23.278Z,21.70
2018-03-22T13:06:51.618Z,23.30
2018-03-22T13:09:19.598Z,22.83
2018-03-22T13:11:47.188Z,24.83
2018-03-22T13:14:15.923Z,25.50
2018-03-22T13:16:43.490Z,26.03
2018-03-22T13:19:11.052Z,26.70
2018-03-22T13:21:49.235Z,26.60
2018-03-22T13:24:20.337Z,27.77
2018-03-22T13:26:48.577Z,30.27
2018-03-22T13:29:16.126Z,28.73
2018-03-22T13:31:44.457Z,27.43
2018-03-22T13:34:12.000Z,27.10
2018-03-22T13:36:40.659Z,25.80
2018-03-22T13:39:08.347Z,27.77
2018-03-22T13:41:36.119Z,28.50
2018-03-22T13:44:03.674Z,27.40
2018-03-22T13:46:31.239Z,25.60
2018-03-22T13:48:59.548Z,29.27
2018-03-22T13:51:27.088Z,27.07
2018-03-22T13:53:54.654Z,28.50
2018-03-22T13:56:22.201Z,27.60
2018-03-22T13:58:50.313Z,26.93
2018-03-22T14:01:19.153Z,25.83
2018-03-22T14:03:46.721Z,27.60
2018-03-22T14:06:15.035Z,25.93
2018-03-22T14:08:46.725Z,27.87
2018-03-22T14:11:14.274Z,29.23
2018-03-22T14:13:42.601Z,25.87
2018-03-22T14:16:10.140Z,25.30
2018-03-22T14:18:37.707Z,25.10
2018-03-22T14:21:05.260Z,25.70
2018-03-22T14:23:34.088Z,25.97
2018-03-22T14:26:01.657Z,26.90
2018-03-22T14:28:29.234Z,26.83
2018-03-22T14:30:56.790Z,29.00
2018-03-22T14:33:24.366Z,26.10
2018-03-22T14:35:51.916Z,29.17
2018-03-22T14:38:19.481Z,26.53
2018-03-22T14:40:47.021Z,28.33
2018-03-22T14:43:14.585Z,27.37
2018-03-22T14:45:42.138Z,28.53
2018-03-22T14:48:09.706Z,28.07
2018-03-22T14:50:37.258Z,29.97
2018-03-22T14:53:04.826Z,29.27
2018-03-22T14:55:32.376Z,28.17
2018-03-22T14:57:59.958Z,27.10
2018-03-22T15:00:27.508Z,27.97
2018-03-22T15:02:55.837Z,29.67
2018-03-22T15:05:23.381Z,28.83
2018-03-22T15:07:50.957Z,28.80
2018-03-22T15:10:18.515Z,28.47
2018-03-22T15:12:46.082Z,29.00
2018-03-22T15:15:13.653Z,28.93
2018-03-22T15:17:41.201Z,29.73
2018-03-22T15:20:08.778Z,28.80
2018-03-22T15:22:36.324Z,29.97
2018-03-22T15:25:03.894Z,29.43
2018-03-22T15:27:31.452Z,28.70
2018-03-22T15:29:59.785Z,28.97
2018-03-22T15:32:27.339Z,27.90
2018-03-22T15:34:55.673Z,28.00
2018-03-22T15:37:23.216Z,28.10
2018-03-22T15:39:50.784Z,29.87
2018-03-22T15:42:18.330Z,28.70
2018-03-22T15:44:45.906Z,28.47
2018-03-22T15:47:13.457Z,30.30
2018-03-22T15:49:41.814Z,30.90
2018-03-22T15:52:09.358Z,29.37
2018-03-22T15:54:36.929Z,29.57
2018-03-22T15:57:05.237Z,30.90
2018-03-22T15:59:33.572Z,28.33
2018-03-22T16:02:01.131Z,27.93
2018-03-22T16:04:28.697Z,30.47
2018-03-22T16:06:57.011Z,31.97
2018-03-22T16:09:25.368Z,33.23
2018-03-22T16:11:52.915Z,28.33
2018-03-22T16:14:20.481Z,30.33
2018-03-22T16:16:48.797Z,30.07
2018-03-22T16:19:16.367Z,31.70
2018-03-22T16:21:44.678Z,30.77
2018-03-22T16:24:12.250Z,31.53
2018-03-22T16:26:40.560Z,28.77
2018-03-22T16:29:08.109Z,30.27
2018-03-22T16:31:35.677Z,30.87
2018-03-22T16:34:03.224Z,29.70
2018-03-22T16:36:30.795Z,30.90
2018-03-22T16:38:58.341Z,34.43
2018-03-22T16:41:25.904Z,33.60
2018-03-22T16:43:53.450Z,29.73
2018-03-22T16:46:21.018Z,32.00
2018-03-22T16:48:49.336Z,33.70
2018-03-22T16:51:16.924Z,34.83
2018-03-22T16:53:44.470Z,36.70
2018-03-22T16:56:12.037Z,33.10
2018-03-22T16:58:39.585Z,35.13
2018-03-22T17:01:07.161Z,37.23
2018-03-22T17:03:34.709Z,36.23
2018-03-22T17:06:02.304Z,36.83
2018-03-22T17:08:30.631Z,34.30
2018-03-22T17:10:58.217Z,39.13
2018-03-22T17:13:25.769Z,40.10
2018-03-22T17:15:53.335Z,42.90
2018-03-22T17:18:20.888Z,42.70
2018-03-22T17:20:48.455Z,44.27
2018-03-22T17:23:16.007Z,45.37
2018-03-22T17:25:44.349Z,45.70
2018-03-22T17:28:11.900Z,37.73
2018-03-22T17:30:39.485Z,42.90
2018-03-22T17:33:07.807Z,39.73
2018-03-22T17:35:35.389Z,40.77
2018-03-22T17:38:02.935Z,40.87
2018-03-22T17:40:30.517Z,45.13
2018-03-22T17:42:58.065Z,44.40
2018-03-22T17:45:25.619Z,42.67
2018-03-22T17:47:53.953Z,43.03
2018-03-22T17:50:21.506Z,41.47
2018-03-22T17:52:49.080Z,44.43
2018-03-22T17:55:17.399Z,47.37
2018-03-22T17:57:44.977Z,50.27
2018-03-22T18:00:12.549Z,51.00
2018-03-22T18:02:40.882Z,51.47
2018-03-22T18:05:08.439Z,47.00
2018-03-22T18:07:36.768Z,42.63
2018-03-22T18:10:04.317Z,43.27
2018-03-22T18:12:32.673Z,48.27
2018-03-22T18:15:00.222Z,50.57
2018-03-22T18:17:27.788Z,42.23
2018-03-22T18:19:56.108Z,41.83
2018-03-22T18:22:23.681Z,41.87
2018-03-22T18:24:52.001Z,44.07
2018-03-22T18:27:19.580Z,42.50
2018-03-22T18:29:47.193Z,49.63
2018-03-22T18:32:14.733Z,46.47
2018-03-22T18:34:43.095Z,43.37
2018-03-22T18:37:10.645Z,45.30
2018-03-22T18:39:38.196Z,42.77
2018-03-22T18:42:06.525Z,45.30
2018-03-22T18:44:34.081Z,46.27
2018-03-22T18:47:01.668Z,51.50
2018-03-22T18:49:29.215Z,52.67
2018-03-22T18:51:56.819Z,50.40
2018-03-22T18:54:24.379Z,58.37
2018-03-22T18:56:51.984Z,50.40
2018-03-22T18:59:19.529Z,57.20
2018-03-22T19:01:47.100Z,65.37
2018-03-22T19:04:15.438Z,62.10
2018-03-22T19:06:43.011Z,56.97
2018-03-22T19:09:10.591Z,72.57
2018-03-22T19:11:38.153Z,87.00
2018-03-22T19:14:06.500Z,73.90
2018-03-22T19:16:34.062Z,64.03
2018-03-22T19:19:02.401Z,70.93
2018-03-22T19:21:29.960Z,69.03
2018-03-22T19:23:57.552Z,77.60
2018-03-22T19:26:25.105Z,75.90
2018-03-22T19:28:53.442Z,78.20
2018-03-22T19:31:21.016Z,79.60
2018-03-22T19:33:48.593Z,81.43
2018-03-22T19:36:16.908Z,83.30
2018-03-22T19:38:44.488Z,74.53
2018-03-22T19:41:12.045Z,84.00
2018-03-22T19:43:39.663Z,76.77
2018-03-22T19:46:07.975Z,70.63
2018-03-22T19:48:35.551Z,62.23
2018-03-22T19:51:03.861Z,58.37
2018-03-22T19:53:31.440Z,57.00
2018-03-22T19:55:59.753Z,66.80
2018-03-22T19:58:28.082Z,64.17
2018-03-22T20:00:55.638Z,66.30
2018-03-22T20:03:28.505Z,59.97
2018-03-22T20:05:57.196Z,76.80
2018-03-22T20:08:24.769Z,52.30
2018-03-22T20:10:53.085Z,48.00
2018-03-22T20:13:20.664Z,48.77
2018-03-22T20:15:48.218Z,46.17
2018-03-22T20:18:15.770Z,46.90
2018-03-22T20:20:43.348Z,45.60
2018-03-22T20:23:10.893Z,44.27
2018-03-22T20:25:39.437Z,42.67
2018-03-22T20:28:08.958Z,39.83
2018-03-22T20:30:36.521Z,32.57
2018-03-22T20:33:04.067Z,33.13
2018-03-22T20:35:31.633Z,30.47
2018-03-22T20:37:59.183Z,32.23
2018-03-22T20:40:26.752Z,31.60
2018-03-22T20:42:54.305Z,30.97
2018-03-22T20:45:21.873Z,29.00
2018-03-22T20:47:49.412Z,28.90
2018-03-22T20:50:16.972Z,28.63
2018-03-22T20:52:44.541Z,28.07
2018-03-22T20:55:12.122Z,29.10
2018-03-22T20:57:40.438Z,27.50
2018-03-22T21:00:08.781Z,25.23
2018-03-22T21:02:36.337Z,26.03
2018-03-22T21:05:03.907Z,25.20
2018-03-22T21:07:31.458Z,24.40
2018-03-22T21:09:59.051Z,24.00
2018-03-22T21:12:26.604Z,25.83
2018-03-22T21:14:54.188Z,26.80
2018-03-22T21:17:21.741Z,27.03
2018-03-22T21:19:49.305Z,27.57
2018-03-22T21:22:16.854Z,29.90
2018-03-22T21:24:45.184Z,27.23
2018-03-22T21:27:12.734Z,24.97
2018-03-22T21:29:41.065Z,26.80
2018-03-22T21:32:08.621Z,28.10
2018-03-22T21:34:36.956Z,26.20
2018-03-22T21:37:04.498Z,26.53
2018-03-22T21:39:32.055Z,24.30
2018-03-22T21:42:05.583Z,25.97
2018-03-22T21:44:33.124Z,24.30
2018-03-22T21:47:12.457Z,25.17
2018-03-22T21:49:40.018Z,24.80
2018-03-22T21:52:19.363Z,22.67
2018-03-22T21:54:46.914Z,23.80
2018-03-22T21:57:14.484Z,23.10
2018-03-22T21:59:42.790Z,22.40
2018-03-22T22:02:11.129Z,22.90
2018-03-22T22:04:38.677Z,22.93
2018-03-22T22:07:07.012Z,23.00
2018-03-22T22:09:34.568Z,24.17
2018-03-22T22:12:02.919Z,24.43
2018-03-22T22:14:30.471Z,23.40
2018-03-22T22:16:58.042Z,22.80
2018-03-22T22:19:25.588Z,23.83
2018-03-22T22:21:53.161Z,21.93
2018-03-22T22:24:20.709Z,20.00
2018-03-22T22:26:48.277Z,19.80
2018-03-22T22:29:15.825Z,17.63
2018-03-22T22:31:43.397Z,19.17
2018-03-22T22:34:11.709Z,16.90
2018-03-22T22:36:39.268Z,17.80
2018-03-22T22:39:06.814Z,17.63
2018-03-22T22:41:34.389Z,16.60
2018-03-22T22:44:02.703Z,16.03
2018-03-22T22:46:30.269Z,16.07
2018-03-22T22:48:58.576Z,16.33
2018-03-22T22:51:26.145Z,15.50
2018-03-22T22:53:53.685Z,16.00
2018-03-22T22:56:21.246Z,15.77
2018-03-22T22:58:48.788Z,15.40
2018-03-22T23:01:16.373Z,16.90
2018-03-22T23:03:43.916Z,14.27
2018-03-22T23:06:11.461Z,15.07
2018-03-22T23:08:39.793Z,15.77
2018-03-22T23:11:07.340Z,14.07
2018-03-22T23:13:34.901Z,16.57
2018-03-22T23:16:02.445Z,14.50
2018-03-22T23:18:30.014Z,14.57
2018-03-22T23:20:58.328Z,14.23
2018-03-22T23:23:25.894Z,16.50
2018-03-22T23:25:54.209Z,16.13
2018-03-22T23:28:21.772Z,16.03
2018-03-22T23:30:50.082Z,17.00
2018-03-22T23:33:18.412Z,16.50
2018-03-22T23:35:45.985Z,14.90
2018-03-22T23:38:14.316Z,18.47
2018-03-22T23:40:41.863Z,17.10
2018-03-22T23:43:10.197Z,16.97
2018-03-22T23:45:37.740Z,13.43
2018-03-22T23:48:06.069Z,16.73
2018-03-22T23:50:33.610Z,18.10
2018-03-22T23:53:01.177Z,17.57
2018-03-22T23:55:28.720Z,16.43
2018-03-22T23:57:56.285Z,19.20
